createdAt,value
2023-05-16T00:01:48.853Z,13.14
2023-05-16T00:04:15.610Z,13.02
2023-05-16T00:06:42.318Z,13.08
2023-05-16T00:09:09.058Z,13.04
2023-05-16T00:11:35.789Z,13.05
2023-05-16T00:14:02.707Z,12.91
2023-05-16T00:16:30.174Z,13.03
2023-05-16T00:19:01.277Z,13.06
2023-05-16T00:21:28.174Z,12.81
2023-05-16T00:23:54.905Z,12.93
2023-05-16T00:26:21.831Z,12.76
2023-05-16T00:28:48.692Z,12.76
2023-05-16T00:31:15.570Z,12.59
2023-05-16T00:33:42.240Z,12.63
2023-05-16T00:36:08.815Z,12.66
2023-05-16T00:38:35.558Z,12.56
2023-05-16T00:41:02.104Z,12.46
2023-05-16T00:43:29.164Z,12.49
2023-05-16T00:45:57.906Z,12.23
2023-05-16T00:48:25.024Z,12.30
2023-05-16T00:50:52.785Z,12.18
2023-05-16T00:53:20.257Z,12.08
2023-05-16T00:55:47.370Z,12.12
2023-05-16T00:58:14.816Z,12.16
2023-05-16T01:00:41.907Z,12.18
2023-05-16T01:03:09.024Z,12.03
2023-05-16T01:05:35.756Z,12.29
2023-05-16T01:08:02.262Z,12.28
2023-05-16T01:10:39.724Z,12.30
2023-05-16T01:13:16.230Z,12.38
2023-05-16T01:16:07.515Z,12.48
2023-05-16T01:18:43.862Z,12.35
2023-05-16T01:21:28.264Z,12.34
2023-05-16T01:24:14.014Z,12.19
2023-05-16T01:26:41.886Z,12.17
2023-05-16T01:29:09.113Z,12.08
2023-05-16T01:31:36.333Z,11.93
2023-05-16T01:34:03.153Z,11.89
2023-05-16T01:36:35.967Z,11.66
2023-05-16T01:39:30.531Z,11.62
2023-05-16T01:42:12.252Z,11.62
2023-05-16T01:44:50.427Z,11.62
2023-05-16T01:47:19.476Z,11.68
2023-05-16T01:50:06.902Z,11.52
2023-05-16T01:52:50.127Z,11.12
2023-05-16T01:55:29.235Z,11.22
2023-05-16T01:57:56.763Z,11.37
2023-05-16T02:00:23.602Z,11.38
2023-05-16T02:02:50.195Z,11.24
2023-05-16T02:05:16.806Z,11.37
2023-05-16T02:07:44.297Z,11.12
2023-05-16T02:10:11.777Z,11.00
2023-05-16T02:12:38.352Z,11.10
2023-05-16T02:15:05.414Z,10.97
2023-05-16T02:17:32.177Z,11.07
2023-05-16T02:19:58.788Z,11.07
2023-05-16T02:22:26.989Z,10.96
2023-05-16T02:24:53.832Z,10.85
2023-05-16T02:27:20.596Z,11.13
2023-05-16T02:29:47.302Z,11.06
2023-05-16T02:32:13.825Z,11.12
2023-05-16T02:34:40.390Z,11.13
2023-05-16T02:37:06.944Z,10.65
2023-05-16T02:39:33.567Z,11.04
2023-05-16T02:42:00.116Z,11.01
2023-05-16T02:44:26.732Z,10.83
2023-05-16T02:46:53.249Z,11.10
2023-05-16T02:49:23.507Z,11.00
2023-05-16T02:51:50.445Z,11.11
2023-05-16T02:54:17.123Z,11.10
2023-05-16T02:56:44.471Z,11.13
2023-05-16T02:59:12.152Z,11.18
2023-05-16T03:01:38.820Z,11.29
2023-05-16T03:04:06.304Z,11.30
2023-05-16T03:06:33.123Z,11.20
2023-05-16T03:08:59.768Z,11.27
2023-05-16T03:11:26.886Z,11.27
2023-05-16T03:13:54.120Z,11.37
2023-05-16T03:16:21.861Z,11.26
2023-05-16T03:18:48.491Z,11.31
2023-05-16T03:21:15.142Z,11.41
2023-05-16T03:23:41.812Z,11.28
2023-05-16T03:26:08.427Z,11.37
2023-05-16T03:28:35.491Z,11.46
2023-05-16T03:31:02.218Z,11.39
2023-05-16T03:33:28.719Z,11.50
2023-05-16T03:35:55.323Z,11.40
2023-05-16T03:38:21.872Z,11.57
2023-05-16T03:40:48.564Z,11.48
2023-05-16T03:43:15.171Z,11.41
2023-05-16T03:45:41.811Z,11.54
2023-05-16T03:48:09.980Z,11.49
2023-05-16T03:50:39.518Z,11.46
2023-05-16T03:53:07.389Z,11.59
2023-05-16T03:55:35.171Z,11.62
2023-05-16T03:58:01.951Z,11.42
2023-05-16T04:00:28.606Z,11.44
2023-05-16T04:02:55.252Z,11.45
2023-05-16T04:05:21.830Z,11.55
2023-05-16T04:07:48.611Z,11.55
2023-05-16T04:10:15.227Z,11.55
2023-05-16T04:12:41.699Z,11.56
2023-05-16T04:15:08.613Z,11.22
2023-05-16T04:17:35.303Z,11.44
2023-05-16T04:20:04.203Z,11.48
2023-05-16T04:22:31.015Z,11.57
2023-05-16T04:24:58.538Z,11.43
2023-05-16T04:27:25.146Z,11.55
2023-05-16T04:29:51.917Z,11.54
2023-05-16T04:32:18.553Z,11.61
2023-05-16T04:34:45.503Z,11.47
2023-05-16T04:37:12.319Z,11.60
2023-05-16T04:39:39.211Z,11.54
2023-05-16T04:42:06.168Z,11.52
2023-05-16T04:44:32.889Z,11.70
2023-05-16T04:46:59.744Z,11.68
2023-05-16T04:49:26.462Z,11.70
2023-05-16T04:51:53.191Z,11.61
2023-05-16T04:54:19.833Z,11.72
2023-05-16T04:56:46.391Z,11.62
2023-05-16T04:59:12.979Z,11.42
2023-05-16T05:01:39.801Z,11.39
2023-05-16T05:04:06.811Z,11.59
2023-05-16T05:06:33.664Z,11.53
2023-05-16T05:09:00.352Z,11.73
2023-05-16T05:11:27.576Z,11.52
2023-05-16T05:13:55.346Z,11.72
2023-05-16T05:16:22.133Z,11.70
2023-05-16T05:18:48.832Z,11.70
2023-05-16T05:21:15.574Z,11.64
2023-05-16T05:23:42.100Z,11.65
2023-05-16T05:26:08.678Z,11.66
2023-05-16T05:28:35.355Z,11.51
2023-05-16T05:31:02.007Z,11.57
2023-05-16T05:33:29.642Z,11.52
2023-05-16T05:35:56.395Z,11.28
2023-05-16T05:38:23.110Z,11.35
2023-05-16T05:40:50.878Z,11.35
2023-05-16T05:43:17.495Z,11.32
2023-05-16T05:45:44.923Z,11.19
2023-05-16T05:48:12.947Z,11.36
2023-05-16T05:50:39.597Z,11.29
2023-05-16T05:53:06.370Z,11.45
2023-05-16T05:55:33.083Z,11.28
2023-05-16T05:57:59.628Z,11.46
2023-05-16T06:00:26.512Z,11.37
2023-05-16T06:02:53.533Z,11.34
2023-05-16T06:05:20.380Z,11.42
2023-05-16T06:07:46.920Z,11.25
2023-05-16T06:10:13.458Z,11.28
2023-05-16T06:12:39.992Z,11.40
2023-05-16T06:15:07.682Z,11.30
2023-05-16T06:17:34.297Z,11.26
2023-05-16T06:20:02.294Z,11.43
2023-05-16T06:22:28.872Z,11.40
2023-05-16T06:24:55.388Z,11.17
2023-05-16T06:27:22.114Z,11.17
2023-05-16T06:29:48.620Z,11.41
2023-05-16T06:32:15.506Z,11.47
2023-05-16T06:34:42.088Z,11.53
2023-05-16T06:37:08.682Z,11.40
2023-05-16T06:39:35.238Z,11.37
2023-05-16T06:42:01.775Z,11.48
2023-05-16T06:44:28.578Z,11.11
2023-05-16T06:46:55.526Z,11.31
2023-05-16T06:49:22.188Z,11.30
2023-05-16T06:51:48.735Z,11.19
2023-05-16T06:54:15.553Z,11.31
2023-05-16T06:56:42.088Z,11.43
2023-05-16T06:59:09.040Z,11.45
2023-05-16T07:01:35.850Z,11.47
2023-05-16T07:04:02.671Z,11.71
2023-05-16T07:06:29.513Z,11.67
2023-05-16T07:08:56.345Z,11.65
2023-05-16T07:11:22.891Z,11.59
2023-05-16T07:13:49.561Z,11.68
2023-05-16T07:16:16.258Z,11.57
2023-05-16T07:18:42.929Z,12.07
2023-05-16T07:21:09.751Z,12.14
2023-05-16T07:23:36.621Z,11.95
2023-05-16T07:26:03.731Z,11.84
2023-05-16T07:28:30.544Z,11.90
2023-05-16T07:30:58.856Z,11.71
2023-05-16T07:33:25.786Z,11.58
2023-05-16T07:35:58.202Z,11.60
2023-05-16T07:38:31.053Z,11.45
2023-05-16T07:40:57.570Z,11.26
2023-05-16T07:43:24.504Z,11.46
2023-05-16T07:45:51.190Z,11.53
2023-05-16T07:48:17.826Z,11.10
2023-05-16T07:50:44.646Z,11.24
2023-05-16T07:53:11.322Z,11.28
2023-05-16T07:55:37.943Z,11.36
2023-05-16T07:58:04.652Z,11.42
2023-05-16T08:00:31.303Z,11.62
2023-05-16T08:02:58.310Z,11.44
2023-05-16T08:05:25.329Z,11.61
2023-05-16T08:07:52.063Z,11.71
2023-05-16T08:10:18.617Z,12.10
2023-05-16T08:12:46.373Z,11.85
2023-05-16T08:15:13.055Z,11.87
2023-05-16T08:17:40.217Z,11.40
2023-05-16T08:20:08.054Z,11.55
2023-05-16T08:22:34.653Z,11.65
2023-05-16T08:25:01.285Z,11.20
2023-05-16T08:27:28.711Z,11.33
2023-05-16T08:29:55.833Z,11.34
2023-05-16T08:32:26.453Z,11.25
2023-05-16T08:34:53.026Z,11.33
2023-05-16T08:37:19.645Z,11.24
2023-05-16T08:39:46.419Z,11.14
2023-05-16T08:42:12.972Z,11.25
2023-05-16T08:44:39.756Z,11.34
2023-05-16T08:47:18.997Z,11.16
2023-05-16T08:49:48.402Z,11.55
2023-05-16T08:52:19.813Z,11.83
2023-05-16T08:54:50.337Z,11.74
2023-05-16T08:57:22.218Z,11.92
2023-05-16T08:59:49.752Z,12.13
2023-05-16T09:02:17.041Z,11.95
2023-05-16T09:04:45.939Z,12.13
2023-05-16T09:07:12.523Z,12.36
2023-05-16T09:09:39.117Z,11.85
2023-05-16T09:12:06.002Z,11.79
2023-05-16T09:14:33.366Z,12.05
2023-05-16T09:17:12.338Z,11.82
2023-05-16T09:19:43.561Z,11.55
2023-05-16T09:22:12.529Z,11.66
2023-05-16T09:24:44.631Z,11.51
2023-05-16T09:27:12.729Z,11.56
2023-05-16T09:29:51.676Z,11.27
2023-05-16T09:32:21.290Z,11.59
2023-05-16T09:34:49.659Z,11.58
2023-05-16T09:37:16.290Z,11.71
2023-05-16T09:39:53.531Z,11.43
2023-05-16T09:42:21.297Z,11.48
2023-05-16T09:44:54.978Z,11.58
2023-05-16T09:47:22.162Z,11.94
2023-05-16T09:49:53.244Z,12.45
2023-05-16T09:52:20.045Z,13.18
2023-05-16T09:54:49.939Z,14.29
2023-05-16T09:57:23.637Z,15.44
2023-05-16T09:59:50.122Z,15.51
2023-05-16T10:02:17.068Z,15.01
2023-05-16T10:04:43.858Z,14.70
2023-05-16T10:07:11.057Z,14.46
2023-05-16T10:09:39.684Z,14.71
2023-05-16T10:12:08.930Z,15.49
2023-05-16T10:14:42.103Z,16.15
2023-05-16T10:17:14.448Z,16.35
2023-05-16T10:19:42.149Z,16.84
2023-05-16T10:22:11.984Z,17.54
2023-05-16T10:24:48.152Z,18.08
2023-05-16T10:27:17.364Z,18.01
2023-05-16T10:29:54.204Z,18.10
2023-05-16T10:32:24.168Z,16.89
2023-05-16T10:34:51.202Z,16.96
2023-05-16T10:37:18.203Z,17.18
2023-05-16T10:39:45.789Z,17.25
2023-05-16T10:42:14.350Z,17.21
2023-05-16T10:44:46.370Z,16.38
2023-05-16T10:47:21.396Z,15.65
2023-05-16T10:49:48.070Z,15.98
2023-05-16T10:52:17.989Z,16.32
2023-05-16T10:54:52.097Z,15.42
2023-05-16T10:57:23.206Z,15.89
2023-05-16T10:59:52.121Z,16.12
2023-05-16T11:02:30.410Z,17.99
2023-05-16T11:04:59.682Z,18.76
2023-05-16T11:07:31.717Z,17.70
2023-05-16T11:10:17.008Z,17.96
2023-05-16T11:12:50.236Z,17.81
2023-05-16T11:15:29.099Z,17.18
2023-05-16T11:18:09.132Z,16.59
2023-05-16T11:20:40.321Z,16.89
2023-05-16T11:23:19.270Z,17.61
2023-05-16T11:25:48.737Z,17.00
2023-05-16T11:28:15.653Z,17.01
2023-05-16T11:30:50.875Z,16.98
2023-05-16T11:33:18.021Z,17.11
2023-05-16T11:36:11.459Z,16.69
2023-05-16T11:38:43.901Z,17.67
2023-05-16T11:41:11.520Z,17.37
2023-05-16T11:43:47.154Z,16.67
2023-05-16T11:46:15.305Z,17.54
2023-05-16T11:48:42.594Z,17.10
2023-05-16T11:51:10.089Z,17.50
2023-05-16T11:53:38.228Z,16.66
2023-05-16T11:56:08.222Z,17.25
2023-05-16T11:58:34.846Z,19.60
2023-05-16T12:01:08.185Z,18.78
2023-05-16T12:03:37.055Z,18.85
2023-05-16T12:06:04.522Z,18.64
2023-05-16T12:08:31.342Z,19.49
2023-05-16T12:10:58.617Z,20.68
2023-05-16T12:13:25.721Z,18.56
2023-05-16T12:15:53.048Z,18.09
2023-05-16T12:18:21.792Z,18.19
2023-05-16T12:20:48.609Z,19.64
2023-05-16T12:23:15.465Z,19.99
2023-05-16T12:25:49.331Z,19.31
2023-05-16T12:28:16.565Z,22.27
2023-05-16T12:30:45.195Z,20.28
2023-05-16T12:33:13.396Z,19.93
2023-05-16T12:38:33.186Z,21.09
2023-05-16T12:40:59.896Z,21.72
2023-05-16T12:43:27.794Z,20.19
2023-05-16T12:45:56.546Z,19.56
2023-05-16T12:48:30.632Z,20.04
2023-05-16T12:50:57.835Z,20.59
2023-05-16T12:53:24.545Z,20.35
2023-05-16T12:55:51.175Z,20.39
2023-05-16T12:58:17.943Z,20.90
2023-05-16T13:00:44.799Z,20.89
2023-05-16T13:03:12.390Z,21.46
2023-05-16T13:05:39.168Z,20.62
2023-05-16T13:08:06.203Z,19.66
2023-05-16T13:10:32.866Z,20.21
2023-05-16T13:13:00.297Z,19.71
2023-05-16T13:15:30.064Z,18.82
2023-05-16T13:17:56.945Z,18.83
2023-05-16T13:20:25.851Z,19.20
2023-05-16T13:22:52.518Z,19.02
2023-05-16T13:25:19.073Z,18.57
2023-05-16T13:27:46.484Z,18.72
2023-05-16T13:30:13.819Z,18.71
2023-05-16T13:32:40.632Z,18.88
2023-05-16T13:35:07.554Z,19.25
2023-05-16T13:37:34.315Z,19.30
2023-05-16T13:40:01.050Z,18.37
2023-05-16T13:42:28.270Z,18.48
2023-05-16T13:44:54.830Z,17.96
2023-05-16T13:47:21.733Z,18.09
2023-05-16T13:49:48.635Z,17.14
2023-05-16T13:52:15.373Z,17.39
2023-05-16T13:54:45.500Z,17.01
2023-05-16T13:57:12.689Z,17.14
2023-05-16T14:00:10.818Z,16.84
2023-05-16T14:02:26.490Z,16.78
2023-05-16T14:04:54.548Z,16.77
2023-05-16T14:07:21.216Z,17.00
2023-05-16T14:09:50.870Z,16.73
2023-05-16T14:12:18.213Z,16.34
2023-05-16T14:14:45.720Z,16.84
2023-05-16T14:17:12.421Z,16.85
2023-05-16T14:19:39.048Z,16.74
2023-05-16T14:22:08.776Z,16.62
2023-05-16T14:24:35.592Z,17.14
2023-05-16T14:27:03.177Z,17.29
2023-05-16T14:29:29.844Z,16.66
2023-05-16T14:31:56.693Z,16.58
2023-05-16T14:34:23.584Z,16.58
2023-05-16T14:36:53.791Z,16.64
2023-05-16T14:39:21.091Z,16.56
2023-05-16T14:41:47.701Z,16.72
2023-05-16T14:44:14.482Z,16.73
2023-05-16T14:46:41.180Z,16.69
2023-05-16T14:49:09.090Z,16.85
2023-05-16T14:51:35.703Z,16.77
2023-05-16T14:54:02.380Z,16.54
2023-05-16T14:56:29.130Z,16.41
2023-05-16T14:58:55.817Z,16.71
2023-05-16T15:01:22.701Z,16.63
2023-05-16T15:03:55.159Z,16.71
2023-05-16T15:06:23.207Z,16.89
2023-05-16T15:08:49.840Z,16.84
2023-05-16T15:11:16.546Z,16.34
2023-05-16T15:13:43.254Z,16.25
2023-05-16T15:16:11.299Z,16.44
2023-05-16T15:18:38.129Z,16.52
2023-05-16T15:21:04.823Z,16.73
2023-05-16T15:23:31.705Z,17.08
2023-05-16T15:25:58.392Z,16.89
2023-05-16T15:28:24.952Z,16.40
2023-05-16T15:30:56.158Z,16.48
2023-05-16T15:33:22.716Z,16.02
2023-05-16T15:35:49.391Z,15.94
2023-05-16T15:38:15.960Z,15.95
2023-05-16T15:40:42.725Z,16.24
2023-05-16T15:43:09.428Z,16.19
2023-05-16T15:45:39.876Z,16.45
2023-05-16T15:48:07.289Z,16.09
2023-05-16T15:50:34.115Z,16.21
2023-05-16T15:53:01.062Z,16.47
2023-05-16T15:55:27.922Z,16.55
2023-05-16T15:58:00.786Z,16.41
2023-05-16T16:00:27.688Z,16.33
2023-05-16T16:02:54.679Z,16.36
2023-05-16T16:05:21.477Z,16.07
2023-05-16T16:07:48.037Z,16.23
2023-05-16T16:10:14.800Z,16.23
2023-05-16T16:12:41.814Z,16.14
2023-05-16T16:15:10.739Z,16.27
2023-05-16T16:17:37.392Z,15.94
2023-05-16T16:20:04.424Z,16.03
2023-05-16T16:22:31.292Z,15.86
2023-05-16T16:24:57.910Z,15.65
2023-05-16T16:27:24.785Z,15.70
2023-05-16T16:29:51.532Z,16.00
2023-05-16T16:32:18.081Z,15.81
2023-05-16T16:34:44.753Z,15.53
2023-05-16T16:37:15.942Z,15.65
2023-05-16T16:39:42.760Z,15.64
2023-05-16T16:42:09.481Z,15.59
2023-05-16T16:44:36.173Z,15.71
2023-05-16T16:47:02.953Z,15.66
2023-05-16T16:49:32.972Z,15.43
2023-05-16T16:51:59.568Z,15.46
2023-05-16T16:54:28.041Z,15.51
2023-05-16T16:56:54.678Z,15.22
2023-05-16T16:59:21.600Z,15.18
2023-05-16T17:01:48.254Z,14.94
2023-05-16T17:04:28.867Z,14.86
2023-05-16T17:06:55.424Z,15.02
2023-05-16T17:09:22.152Z,15.27
2023-05-16T17:11:49.006Z,15.23
2023-05-16T17:14:15.627Z,14.94
2023-05-16T17:16:42.263Z,15.04
2023-05-16T17:19:14.136Z,14.79
2023-05-16T17:21:41.004Z,14.69
2023-05-16T17:24:08.095Z,14.62
2023-05-16T17:26:35.583Z,14.68
2023-05-16T17:29:04.163Z,14.78
2023-05-16T17:31:31.191Z,14.57
2023-05-16T17:33:57.888Z,14.70
2023-05-16T17:36:24.484Z,14.44
2023-05-16T17:38:51.218Z,14.49
2023-05-16T17:41:18.155Z,14.45
2023-05-16T17:43:45.697Z,14.30
2023-05-16T17:46:20.705Z,14.40
2023-05-16T17:48:47.520Z,14.34
2023-05-16T17:51:17.467Z,14.20
2023-05-16T17:53:44.610Z,14.20
2023-05-16T17:56:11.200Z,14.09
2023-05-16T17:58:37.870Z,13.88
2023-05-16T18:01:09.284Z,13.95
2023-05-16T18:03:36.485Z,13.92
2023-05-16T18:06:03.235Z,13.82
2023-05-16T18:08:29.891Z,13.93
2023-05-16T18:10:56.917Z,13.79
2023-05-16T18:13:24.488Z,13.73
2023-05-16T18:15:51.109Z,13.54
2023-05-16T18:18:18.052Z,13.50
2023-05-16T18:20:46.108Z,13.49
2023-05-16T18:23:12.644Z,13.51
2023-05-16T18:25:39.322Z,13.34
2023-05-16T18:28:07.759Z,13.37
2023-05-16T18:30:37.026Z,13.14
2023-05-16T18:33:04.929Z,13.30
2023-05-16T18:35:31.702Z,13.30
2023-05-16T18:37:58.400Z,13.16
2023-05-16T18:40:47.940Z,13.10
2023-05-16T18:43:14.950Z,13.03
2023-05-16T18:45:41.536Z,12.95
2023-05-16T18:48:08.307Z,12.97
2023-05-16T18:50:35.155Z,12.92
2023-05-16T18:53:01.859Z,12.84
2023-05-16T18:55:30.991Z,12.86
2023-05-16T18:57:58.360Z,12.78
2023-05-16T19:00:25.579Z,12.82
2023-05-16T19:02:52.351Z,12.71
2023-05-16T19:05:19.867Z,12.59
2023-05-16T19:07:46.816Z,12.45
2023-05-16T19:10:13.669Z,12.45
2023-05-16T19:12:40.335Z,12.40
2023-05-16T19:15:07.590Z,12.39
2023-05-16T19:17:34.379Z,12.29
2023-05-16T19:20:01.858Z,12.26
2023-05-16T19:22:28.706Z,12.20
2023-05-16T19:24:55.380Z,12.07
2023-05-16T19:27:22.028Z,12.08
2023-05-16T19:29:51.090Z,12.02
2023-05-16T19:32:17.951Z,11.99
2023-05-16T19:34:45.005Z,11.87
2023-05-16T19:37:12.176Z,11.79
2023-05-16T19:39:38.978Z,11.83
2023-05-16T19:42:07.497Z,11.75
2023-05-16T19:44:34.974Z,11.66
2023-05-16T19:47:05.926Z,11.66
2023-05-16T19:49:38.442Z,11.58
2023-05-16T19:52:08.241Z,11.58
2023-05-16T19:54:37.626Z,11.42
2023-05-16T19:57:04.452Z,11.33
2023-05-16T19:59:32.598Z,11.28
2023-05-16T20:01:59.809Z,11.31
2023-05-16T20:04:26.558Z,11.15
2023-05-16T20:06:53.374Z,10.91
2023-05-16T20:09:20.022Z,10.73
2023-05-16T20:11:46.928Z,10.41
2023-05-16T20:14:13.691Z,10.45
2023-05-16T20:16:46.622Z,10.21
2023-05-16T20:19:15.288Z,10.00
2023-05-16T20:21:41.957Z,10.09
2023-05-16T20:24:08.612Z,10.05
2023-05-16T20:26:35.383Z,9.67
2023-05-16T20:29:02.024Z,9.51
2023-05-16T20:31:28.602Z,9.59
2023-05-16T20:33:55.742Z,9.34
2023-05-16T20:36:22.360Z,9.27
2023-05-16T20:38:49.060Z,9.18
2023-05-16T20:41:15.659Z,9.08
2023-05-16T20:43:42.936Z,8.91
2023-05-16T20:46:09.718Z,8.79
2023-05-16T20:48:36.361Z,8.68
2023-05-16T20:51:03.125Z,8.52
2023-05-16T20:53:29.834Z,8.41
2023-05-16T20:55:58.186Z,8.39
2023-05-16T20:58:24.860Z,8.34
2023-05-16T21:00:51.528Z,8.29
2023-05-16T21:03:18.343Z,8.17
2023-05-16T21:05:45.025Z,8.08
2023-05-16T21:08:11.684Z,7.84
2023-05-16T21:10:38.304Z,7.77
2023-05-16T21:13:04.882Z,7.60
2023-05-16T21:15:31.619Z,7.72
2023-05-16T21:17:58.408Z,7.47
2023-05-16T21:20:25.113Z,7.58
2023-05-16T21:22:55.951Z,7.56
2023-05-16T21:25:22.524Z,7.64
2023-05-16T21:27:49.405Z,7.44
2023-05-16T21:30:16.084Z,7.48
2023-05-16T21:32:42.764Z,7.43
2023-05-16T21:35:09.622Z,7.33
2023-05-16T21:37:36.211Z,7.32
2023-05-16T21:40:02.913Z,7.33
2023-05-16T21:42:29.598Z,7.29
2023-05-16T21:44:56.132Z,7.33
2023-05-16T21:47:23.569Z,7.48
2023-05-16T21:49:50.144Z,7.49
2023-05-16T21:52:16.790Z,7.47
2023-05-16T21:54:43.355Z,7.54
2023-05-16T21:57:09.992Z,7.38
2023-05-16T21:59:36.818Z,7.41
2023-05-16T22:02:03.467Z,7.42
2023-05-16T22:04:30.051Z,7.36
2023-05-16T22:06:57.108Z,7.35
2023-05-16T22:09:23.827Z,7.30
2023-05-16T22:11:50.490Z,6.97
2023-05-16T22:14:17.162Z,7.28
2023-05-16T22:16:43.820Z,7.17
2023-05-16T22:19:10.570Z,6.97
2023-05-16T22:21:37.090Z,7.03
2023-05-16T22:24:03.694Z,7.09
2023-05-16T22:26:37.857Z,7.03
2023-05-16T22:29:05.569Z,7.00
2023-05-16T22:31:32.121Z,7.05
2023-05-16T22:33:58.637Z,7.07
2023-05-16T22:36:25.529Z,6.87
2023-05-16T22:38:52.023Z,6.90
2023-05-16T22:41:18.615Z,6.88
2023-05-16T22:43:45.126Z,6.88
2023-05-16T22:46:11.620Z,6.86
2023-05-16T22:48:38.294Z,6.89
2023-05-16T22:51:05.042Z,6.76
2023-05-16T22:53:32.316Z,6.91
2023-05-16T22:55:58.922Z,6.78
2023-05-16T22:58:25.433Z,6.56
2023-05-16T23:00:51.907Z,6.62
2023-05-16T23:03:18.446Z,6.62
2023-05-16T23:05:45.102Z,6.51
2023-05-16T23:08:13.425Z,6.50
2023-05-16T23:10:39.912Z,6.50
2023-05-16T23:13:06.564Z,6.41
2023-05-16T23:15:33.160Z,6.39
2023-05-16T23:17:59.745Z,6.39
2023-05-16T23:20:26.391Z,6.43
2023-05-16T23:22:52.963Z,6.42
2023-05-16T23:25:19.584Z,6.26
2023-05-16T23:27:46.086Z,6.21
2023-05-16T23:30:12.824Z,6.19
2023-05-16T23:32:40.629Z,6.14
2023-05-16T23:35:08.021Z,6.06
2023-05-16T23:37:34.554Z,6.11
2023-05-16T23:40:01.073Z,5.96
2023-05-16T23:42:27.532Z,5.88
2023-05-16T23:44:54.403Z,5.89
2023-05-16T23:47:20.848Z,5.91
2023-05-16T23:49:47.327Z,5.87
2023-05-16T23:52:14.477Z,5.83
2023-05-16T23:54:41.287Z,5.82
2023-05-16T23:57:07.787Z,5.82
2023-05-16T23:59:34.306Z,5.83
